Time;durP1;ratioP1;P1;durP2;ratioP2;P2;SDS_P1;SDS_P2;PMS_P1;PMS_P2;Temp;Humidity;BMP_temperature;BMP_pressure;BME280_temperature;BME280_humidity;BME280_pressure;Samples;Min_cycle;Max_cycle;Signal;HPM_P1;HPM_P2
2022/12/01 00:00:42;;;;;;;;;54.75;42.75;;;;;8.27;71.68;102066.41;4982913;27;45465;-65
2022/12/01 00:03:08;;;;;;;;;58.25;42.75;;;;;8.34;71.86;102089.25;5031084;27;45496;-70
2022/12/01 00:05:34;;;;;;;;;53.75;38.00;;;;;8.42;72.17;102095.66;4990794;27;46248;-65
2022/12/01 00:08:00;;;;;;;;;29.75;29.75;;;;;8.38;71.56;102072.88;5036169;27;45525;-65
2022/12/01 00:10:26;;;;;;;;;46.25;36.50;;;;;8.50;71.73;102088.06;5022886;27;45654;-67
2022/12/01 00:12:53;;;;;;;;;49.25;33.00;;;;;8.51;71.73;102074.16;5026452;27;45483;-65
2022/12/01 00:15:19;;;;;;;;;47.00;33.50;;;;;8.48;71.60;102071.47;5026454;27;45622;-66
2022/12/01 00:17:46;;;;;;;;;36.50;31.50;;;;;8.53;71.75;102071.63;5021691;27;45501;-65
2022/12/01 00:20:13;;;;;;;;;56.00;43.00;;;;;8.56;71.27;102083.03;4993619;27;45476;-67
2022/12/01 00:22:44;;;;;;;;;55.25;40.75;;;;;8.45;71.41;102068.78;5037482;27;45541;-65
2022/12/01 00:25:15;;;;;;;;;52.25;41.25;;;;;8.45;71.71;102077.47;5006535;27;45445;-65
2022/12/01 00:27:47;;;;;;;;;52.75;36.75;;;;;8.48;71.15;102074.97;5015705;27;45444;-66
2022/12/01 00:30:13;;;;;;;;;51.00;36.00;;;;;8.46;71.50;102068.78;5056095;27;45856;-67
2022/12/01 00:32:39;;;;;;;;;43.50;34.00;;;;;8.55;71.21;102090.84;5002790;27;45296;-66
2022/12/01 00:35:05;;;;;;;;;43.75;38.50;;;;;8.48;71.30;102094.97;5017486;27;45590;-66
2022/12/01 00:37:33;;;;;;;;;52.75;36.00;;;;;8.43;71.29;102086.09;4984622;27;45351;-65
2022/12/01 00:39:58;;;;;;;;;43.50;35.75;;;;;8.36;71.23;102081.50;4970793;27;46012;-64
2022/12/01 00:42:25;;;;;;;;;45.00;36.50;;;;;8.32;71.42;102071.78;4971655;27;45876;-64
2022/12/01 00:44:51;;;;;;;;;47.50;35.50;;;;;8.29;71.25;102081.28;5015267;27;47940;-66
2022/12/01 00:47:16;;;;;;;;;52.25;39.50;;;;;8.27;71.01;102080.34;5047076;27;45446;-75
2022/12/01 00:49:44;;;;;;;;;52.25;38.00;;;;;8.23;71.06;102073.25;5035135;27;45491;-72
2022/12/01 00:52:10;;;;;;;;;43.50;36.75;;;;;8.16;71.01;102052.09;4977322;28;45570;-74
2022/12/01 00:54:36;;;;;;;;;52.00;38.25;;;;;8.14;71.38;102069.44;5034393;27;46735;-76
2022/12/01 00:57:02;;;;;;;;;47.25;35.50;;;;;8.02;71.47;102068.22;5028496;27;45434;-73
2022/12/01 00:59:27;;;;;;;;;42.00;34.25;;;;;8.05;71.22;102070.91;4997974;27;45829;-79
2022/12/01 01:01:53;;;;;;;;;39.50;31.25;;;;;8.06;71.30;102064.84;5011074;27;45750;-71
2022/12/01 01:04:19;;;;;;;;;44.00;34.25;;;;;8.07;71.68;102077.06;5036425;27;46854;-69
2022/12/01 01:06:45;;;;;;;;;46.75;34.25;;;;;8.11;71.51;102082.38;5010220;27;46080;-76
2022/12/01 01:09:13;;;;;;;;;48.75;33.25;;;;;8.11;71.00;102088.50;5016342;27;45252;-71
2022/12/01 01:11:39;;;;;;;;;40.25;33.50;;;;;8.05;70.99;102064.81;5059907;27;45487;-68
2022/12/01 01:14:05;;;;;;;;;46.25;36.25;;;;;8.03;70.98;102062.13;4990866;28;48325;-79
2022/12/01 01:16:32;;;;;;;;;51.00;33.75;;;;;8.09;70.34;102077.09;4991953;27;45498;-75
2022/12/01 01:18:58;;;;;;;;;41.25;29.25;;;;;8.04;70.78;102066.53;5037136;27;45922;-65
2022/12/01 01:21:24;;;;;;;;;42.25;31.75;;;;;8.06;70.63;102074.41;5045489;27;45668;-65
2022/12/01 01:23:51;;;;;;;;;43.25;33.25;;;;;8.10;71.06;102083.25;5006642;27;46209;-69
2022/12/01 01:26:23;;;;;;;;;30.00;23.25;;;;;8.10;71.13;102078.03;4971294;27;45330;-66
2022/12/01 01:28:49;;;;;;;;;48.75;33.50;;;;;8.08;70.68;102076.22;4994574;27;45446;-66
2022/12/01 01:31:21;;;;;;;;;49.50;36.00;;;;;8.10;71.20;102086.72;4978681;28;45500;-66
2022/12/01 01:33:47;;;;;;;;;43.00;34.75;;;;;8.03;70.88;102075.19;4982501;27;45636;-73
2022/12/01 01:36:14;;;;;;;;;47.50;38.50;;;;;8.02;71.05;102085.56;4993021;27;45713;-68
2022/12/01 01:38:40;;;;;;;;;37.75;32.00;;;;;7.98;70.67;102074.16;4971129;28;45527;-67
2022/12/01 01:41:06;;;;;;;;;52.25;36.25;;;;;8.10;70.98;102091.94;4982527;27;45357;-70
2022/12/01 01:44:00;;;;;;;;;43.25;31.75;;;;;8.07;70.74;102081.41;4992471;27;46473;-73
2022/12/01 01:46:31;;;;;;;;;53.75;39.00;;;;;8.16;70.22;102096.47;4996025;27;45594;-70
2022/12/01 01:49:08;;;;;;;;;40.75;32.25;;;;;8.14;70.03;102079.88;4994293;27;46575;-64
2022/12/01 01:51:42;;;;;;;;;50.00;35.75;;;;;8.22;69.78;102107.13;4991893;27;45413;-66
2022/12/01 01:54:21;;;;;;;;;48.75;36.75;;;;;8.17;69.20;102091.31;4972289;27;47045;-67
2022/12/01 01:56:50;;;;;;;;;48.75;39.00;;;;;8.27;69.75;102109.03;4990440;27;45398;-72
2022/12/01 01:59:24;;;;;;;;;50.75;36.25;;;;;8.27;69.69;102108.16;4994249;27;45500;-66
2022/12/01 02:01:59;;;;;;;;;59.25;38.00;;;;;8.21;69.36;102081.84;4993437;27;45521;-66
2022/12/01 02:04:26;;;;;;;;;50.75;35.00;;;;;8.26;69.65;102088.13;4991372;27;45681;-65
2022/12/01 02:06:52;;;;;;;;;47.00;35.00;;;;;8.20;69.23;102080.09;4991882;27;45374;-65
2022/12/01 02:09:18;;;;;;;;;49.25;37.50;;;;;8.26;69.34;102081.19;4973449;28;45869;-66
2022/12/01 02:12:05;;;;;;;;;54.25;40.75;;;;;8.31;68.87;102094.38;4991482;27;45489;-68
2022/12/01 02:15:18;;;;;;;;;53.25;37.75;;;;;8.24;69.02;102080.25;4989887;27;46780;-64
2022/12/01 02:18:14;;;;;;;;;55.00;40.75;;;;;8.23;68.89;102088.91;4994502;27;45498;-64
2022/12/01 02:21:00;;;;;;;;;50.25;36.50;;;;;8.20;69.12;102088.78;4995819;27;45397;-64
2022/12/01 02:23:41;;;;;;;;;42.25;35.50;;;;;8.20;69.14;102082.69;4994873;27;45343;-66
2022/12/01 02:26:38;;;;;;;;;46.25;36.50;;;;;8.24;68.30;102087.19;4990581;27;46508;-67
2022/12/01 02:29:17;;;;;;;;;49.00;38.75;;;;;8.21;68.67;102074.94;4990769;27;45513;-66
2022/12/01 02:32:07;;;;;;;;;42.25;33.75;;;;;8.28;68.34;102081.22;4991330;27;45532;-67
2022/12/01 02:34:59;;;;;;;;;40.25;29.25;;;;;8.24;68.20;102074.16;4992602;27;45550;-69
2022/12/01 02:37:34;;;;;;;;;47.75;35.50;;;;;8.29;67.88;102078.66;4990951;27;46288;-70
2022/12/01 02:40:22;;;;;;;;;47.00;35.00;;;;;8.27;67.82;102074.22;4989751;27;45779;-71
2022/12/01 02:42:58;;;;;;;;;50.25;37.25;;;;;8.20;68.05;102067.91;4989020;27;45560;-69
2022/12/01 02:45:42;;;;;;;;;44.25;34.50;;;;;8.29;67.81;102081.28;4991848;27;45402;-72
2022/12/01 02:48:21;;;;;;;;;39.75;29.00;;;;;8.29;67.73;102070.84;4992337;27;45922;-73
2022/12/01 02:50:47;;;;;;;;;42.50;34.75;;;;;8.17;67.81;102054.78;4970429;28;45512;-68
2022/12/01 02:53:17;;;;;;;;;45.00;33.00;;;;;8.29;68.10;102075.19;4977874;27;46764;-65
2022/12/01 02:55:52;;;;;;;;;40.75;33.00;;;;;8.25;68.32;102073.28;5051897;27;45635;-70
2022/12/01 02:58:19;;;;;;;;;45.25;35.00;;;;;8.29;68.17;102083.00;5010653;27;45609;-65
2022/12/01 03:01:14;;;;;;;;;42.50;32.00;;;;;8.27;68.46;102077.72;4988434;27;45462;-69
2022/12/01 03:04:25;;;;;;;;;44.00;30.00;;;;;8.32;68.27;102080.47;4970933;27;45896;-66
2022/12/01 03:06:57;;;;;;;;;42.50;35.25;;;;;8.32;68.23;102074.38;4980240;27;45525;-74
2022/12/01 03:09:50;;;;;;;;;46.25;30.50;;;;;8.31;68.30;102081.34;5063924;27;47039;-70
2022/12/01 03:12:22;;;;;;;;;44.00;33.50;;;;;8.31;68.42;102075.25;4986120;27;45426;-78
2022/12/01 03:15:19;;;;;;;;;45.00;34.00;;;;;8.07;68.14;102037.94;4974471;28;45557;-79
2022/12/01 03:18:19;;;;;;;;;56.50;39.00;;;;;8.24;68.15;102075.03;4983202;27;45390;-74
2022/12/01 03:21:12;;;;;;;;;48.75;38.00;;;;;8.18;68.18;102071.31;4960481;28;47504;-78
2022/12/01 03:23:49;;;;;;;;;53.50;34.75;;;;;8.11;68.51;102056.28;4970305;28;45402;-74
2022/12/01 03:26:21;;;;;;;;;37.00;35.50;;;;;8.11;68.61;102053.69;4974235;27;45385;-72
2022/12/01 03:29:15;;;;;;;;;54.25;39.50;;;;;8.10;68.42;102067.59;5064547;27;45345;-78
2022/12/01 03:31:50;;;;;;;;;48.25;37.50;;;;;8.08;68.64;102081.44;4982299;28;45479;-77
2022/12/01 03:34:48;;;;;;;;;53.00;41.00;;;;;8.08;68.91;102077.94;4983042;28;45453;-76
2022/12/01 03:37:44;;;;;;;;;37.75;30.00;;;;;8.10;69.20;102078.03;4984846;27;46569;-77
2022/12/01 03:40:36;;;;;;;;;47.25;35.75;;;;;8.01;68.81;102066.41;4994517;27;45382;-70
2022/12/01 03:43:18;;;;;;;;;47.50;32.50;;;;;7.99;68.86;102070.69;5001506;27;45442;-76
2022/12/01 03:45:54;;;;;;;;;45.50;34.25;;;;;8.11;69.05;102071.94;4993319;27;45659;-69
2022/12/01 03:48:23;;;;;;;;;45.50;35.50;;;;;8.13;69.25;102076.38;4976395;27;45632;-69
2022/12/01 03:51:08;;;;;;;;;55.50;39.50;;;;;8.02;68.89;102054.25;5021419;28;45500;-65
2022/12/01 03:53:58;;;;;;;;;51.50;38.00;;;;;8.00;68.79;102077.69;5001047;27;46267;-65
2022/12/01 03:56:29;;;;;;;;;51.75;37.75;;;;;8.01;68.96;102075.97;4994585;27;45381;-68
2022/12/01 03:58:58;;;;;;;;;40.25;25.50;;;;;8.04;69.20;102079.59;4993443;27;45396;-66
2022/12/01 04:01:25;;;;;;;;;48.75;36.75;;;;;7.81;69.02;102036.19;4993744;27;45589;-67
2022/12/01 04:03:51;;;;;;;;;55.75;39.25;;;;;7.98;68.64;102061.09;4972818;28;47304;-65
2022/12/01 04:06:16;;;;;;;;;37.75;32.00;;;;;7.88;68.95;102047.69;4966850;27;45500;-69
2022/12/01 04:08:42;;;;;;;;;51.75;34.50;;;;;8.02;69.16;102060.38;4990631;27;45347;-65
2022/12/01 04:13:51;;;;;;;;;45.25;34.00;;;;;7.92;69.18;102037.41;4985986;27;45451;-67
2022/12/01 04:16:17;;;;;;;;;51.25;36.75;;;;;8.01;68.90;102039.44;4992617;27;45904;-67
2022/12/01 04:18:42;;;;;;;;;43.00;34.75;;;;;8.03;69.06;102041.25;4993186;27;45363;-66
2022/12/01 04:21:08;;;;;;;;;50.50;34.75;;;;;8.10;68.86;102059.75;4992256;27;45597;-65
2022/12/01 04:26:17;;;;;;;;;45.00;33.50;;;;;8.02;68.91;102047.34;4993486;27;45404;-66
2022/12/01 04:28:43;;;;;;;;;43.00;34.00;;;;;7.97;68.77;102035.88;4993266;27;45336;-66
2022/12/01 04:31:09;;;;;;;;;48.75;34.50;;;;;7.94;69.09;102038.34;4975543;27;45784;-66
2022/12/01 04:33:34;;;;;;;;;40.50;34.50;;;;;7.99;69.14;102041.13;4994639;27;46430;-70
2022/12/01 04:36:00;;;;;;;;;36.50;25.50;;;;;7.91;68.97;102022.59;4994422;27;45492;-66
2022/12/01 04:38:26;;;;;;;;;31.50;30.75;;;;;8.06;68.80;102054.41;4992409;27;45419;-66
2022/12/01 04:40:52;;;;;;;;;46.50;32.00;;;;;8.13;68.80;102058.13;4978263;28;46316;-69
2022/12/01 04:43:18;;;;;;;;;41.00;34.25;;;;;8.06;68.82;102057.00;4993095;27;47229;-66
2022/12/01 04:45:44;;;;;;;;;46.50;36.25;;;;;8.05;68.48;102051.78;4975934;28;45454;-67
2022/12/01 04:48:09;;;;;;;;;47.50;35.00;;;;;8.18;68.69;102066.09;4995526;27;45386;-66
2022/12/01 04:50:35;;;;;;;;;39.75;32.00;;;;;8.05;68.58;102055.25;4993162;27;45524;-70
2022/12/01 04:53:00;;;;;;;;;50.00;36.75;;;;;8.04;68.39;102061.31;4992417;27;45357;-65
2022/12/01 04:55:26;;;;;;;;;48.25;40.25;;;;;7.92;68.61;102045.22;4992416;27;45914;-70
2022/12/01 04:57:51;;;;;;;;;41.75;32.75;;;;;8.03;68.86;102077.78;4997000;27;45283;-67
2022/12/01 05:00:17;;;;;;;;;43.25;33.50;;;;;7.91;68.40;102058.25;4996030;27;45329;-67
2022/12/01 05:02:43;;;;;;;;;49.75;38.00;;;;;8.04;68.40;102083.91;4992080;27;45548;-70
2022/12/01 05:05:12;;;;;;;;;47.25;36.75;;;;;7.93;68.67;102067.91;4994428;27;45479;-69
2022/12/01 05:07:39;;;;;;;;;47.75;35.75;;;;;8.01;68.74;102076.84;4996380;27;45535;-64
2022/12/01 05:10:05;;;;;;;;;41.00;31.25;;;;;7.84;68.93;102047.59;4988254;27;45503;-67
2022/12/01 15:12:55;;;;;;;;;38.40;28.40;;;;;6.51;72.57;102045.28;5102159;27;1642498;-62
2022/12/01 15:15:26;;;;;;;;;38.25;33.75;;;;;6.68;72.03;102049.44;5123425;27;45443;-63
2022/12/01 15:17:54;;;;;;;;;40.00;32.25;;;;;6.85;71.20;102057.91;5140665;27;45509;-64
2022/12/01 15:20:48;;;;;;;;;48.00;36.75;;;;;7.00;70.72;102048.06;5132875;27;45427;-66
2022/12/01 15:23:15;;;;;;;;;40.75;33.25;;;;;7.17;69.75;102055.63;5111260;27;47911;-65
2022/12/01 15:25:44;;;;;;;;;48.25;35.25;;;;;7.29;69.48;102050.00;5114013;27;45478;-70
2022/12/01 15:28:20;;;;;;;;;40.50;35.25;;;;;7.36;69.00;102059.81;5140564;27;45744;-68
2022/12/01 15:30:54;;;;;;;;;41.25;29.00;;;;;7.39;69.65;102052.09;5143198;27;45373;-64
2022/12/01 15:33:30;;;;;;;;;37.25;30.00;;;;;7.50;68.85;102065.47;5139377;27;45618;-67
2022/12/01 15:35:57;;;;;;;;;34.25;25.75;;;;;7.60;68.75;102063.28;5137637;27;45409;-64
2022/12/01 15:38:30;;;;;;;;;28.50;25.50;;;;;7.65;68.71;102059.09;5137230;27;45478;-64
2022/12/01 15:40:58;;;;;;;;;27.50;22.50;;;;;7.75;68.25;102055.09;5137228;27;45594;-64
2022/12/01 15:43:38;;;;;;;;;32.00;23.00;;;;;7.80;67.91;102048.31;5118183;27;47160;-64
2022/12/01 15:46:15;;;;;;;;;28.75;25.50;;;;;7.91;67.72;102066.94;5132088;27;45374;-62
2022/12/01 15:48:41;;;;;;;;;27.75;25.00;;;;;7.95;67.65;102055.78;5136144;27;45404;-67
2022/12/01 15:51:25;;;;;;;;;25.75;18.75;;;;;7.92;67.49;102042.63;5131523;27;45304;-65
2022/12/01 15:53:59;;;;;;;;;31.00;25.50;;;;;8.10;66.95;102059.75;5133839;27;45366;-67
2022/12/01 15:56:35;;;;;;;;;28.50;24.25;;;;;8.16;67.14;102057.31;5135222;27;45552;-64
2022/12/01 15:59:27;;;;;;;;;28.25;23.00;;;;;8.20;67.04;102054.88;5119914;27;45588;-62
2022/12/01 16:01:52;;;;;;;;;36.75;29.75;;;;;8.25;66.33;102060.25;5123502;27;45482;-71
2022/12/01 16:04:23;;;;;;;;;32.25;28.00;;;;;8.24;66.29;102061.97;5117885;27;45498;-65
2022/12/01 16:07:09;;;;;;;;;32.25;23.75;;;;;8.24;66.74;102051.53;5128451;27;46136;-68
2022/12/01 16:09:40;;;;;;;;;33.00;25.25;;;;;8.29;66.45;102055.16;5113955;27;45500;-64
2022/12/01 16:12:12;;;;;;;;;38.25;26.00;;;;;8.31;66.00;102060.44;5138920;27;45396;-69
2022/12/01 16:14:49;;;;;;;;;37.75;29.25;;;;;8.31;66.01;102063.06;5138563;27;45847;-63
2022/12/01 16:17:15;;;;;;;;;36.25;31.25;;;;;8.30;65.88;102058.66;5144761;27;45626;-73
2022/12/01 16:19:42;;;;;;;;;41.50;31.25;;;;;8.24;65.82;102067.19;5138156;27;45521;-64
2022/12/01 16:22:11;;;;;;;;;36.75;27.75;;;;;8.23;65.78;102064.53;5113431;27;45453;-67
2022/12/01 16:24:41;;;;;;;;;37.00;30.50;;;;;8.19;66.47;102065.28;5115719;27;46514;-64
2022/12/01 16:27:22;;;;;;;;;38.75;34.00;;;;;8.21;66.31;102066.19;5120245;27;45669;-64
2022/12/01 16:29:55;;;;;;;;;33.25;29.50;;;;;8.20;66.46;102059.22;5116912;27;45532;-67
2022/12/01 16:32:32;;;;;;;;;35.50;31.50;;;;;8.18;66.42;102050.44;5118239;27;45896;-65
2022/12/01 16:34:58;;;;;;;;;29.50;24.50;;;;;8.21;66.21;102054.06;5122384;27;46199;-66
2022/12/01 16:37:25;;;;;;;;;25.25;20.50;;;;;8.13;66.19;102032.00;5123098;27;45377;-62
2022/12/01 16:39:51;;;;;;;;;26.50;24.25;;;;;8.31;66.33;102060.44;5098819;27;45528;-65
2022/12/01 16:42:22;;;;;;;;;29.50;20.75;;;;;8.33;66.28;102064.00;5117691;27;46175;-66
2022/12/01 16:44:49;;;;;;;;;37.75;25.00;;;;;8.36;66.33;102058.00;5100678;27;45627;-64
2022/12/01 16:47:24;;;;;;;;;28.00;23.75;;;;;8.37;66.09;102060.63;5124206;27;45563;-64
2022/12/01 16:49:51;;;;;;;;;30.75;23.25;;;;;8.40;66.13;102060.78;5124727;27;45506;-64
2022/12/01 16:52:17;;;;;;;;;36.00;24.00;;;;;8.38;66.34;102056.31;5109731;27;45826;-64
2022/12/01 16:54:43;;;;;;;;;25.75;20.25;;;;;8.38;66.50;102056.31;5132534;27;46185;-65
2022/12/01 16:57:10;;;;;;;;;31.25;24.75;;;;;8.37;66.35;102047.59;5124734;27;45482;-70
2022/12/01 16:59:36;;;;;;;;;34.00;27.00;;;;;8.41;66.07;102059.94;5129032;27;45704;-68
2022/12/01 17:02:02;;;;;;;;;31.75;21.00;;;;;8.41;66.66;102062.53;5120019;27;45574;-68
2022/12/01 17:04:27;;;;;;;;;39.00;31.00;;;;;8.37;66.52;102057.16;5116829;27;45962;-66
2022/12/01 17:06:53;;;;;;;;;30.00;25.25;;;;;8.37;66.28;102047.59;5128009;27;45419;-64
2022/12/01 17:09:21;;;;;;;;;31.25;27.75;;;;;8.40;66.65;102052.97;5130511;27;45488;-67
2022/12/01 17:11:47;;;;;;;;;40.25;32.00;;;;;8.44;66.67;102066.97;5126361;27;45591;-65
2022/12/01 17:14:12;;;;;;;;;29.00;23.50;;;;;8.42;66.82;102059.13;5129478;27;45512;-73
2022/12/01 17:16:38;;;;;;;;;51.50;34.00;;;;;8.40;66.56;102050.34;5122003;27;45691;-78
2022/12/01 17:19:04;;;;;;;;;39.50;34.25;;;;;8.49;66.49;102066.31;5122300;27;45502;-69
2022/12/01 17:21:29;;;;;;;;;37.50;28.25;;;;;8.44;66.71;102064.38;5117033;27;45468;-77
2022/12/01 17:23:55;;;;;;;;;37.50;33.50;;;;;8.41;66.74;102051.22;5114229;27;46991;-75
2022/12/01 17:26:22;;;;;;;;;36.75;31.25;;;;;8.44;67.16;102074.81;5128257;27;45819;-72
2022/12/01 17:28:48;;;;;;;;;46.50;36.00;;;;;8.39;67.03;102061.56;5120356;27;45833;-63
2022/12/01 17:31:14;;;;;;;;;40.75;33.00;;;;;8.43;67.14;102068.72;5122145;27;45482;-65
2022/12/01 17:33:40;;;;;;;;;44.00;33.00;;;;;8.47;67.11;102069.69;5119256;27;45474;-79
2022/12/01 17:36:11;;;;;;;;;36.25;33.25;;;;;8.47;66.94;102070.59;5118771;27;45692;-72
2022/12/01 17:38:39;;;;;;;;;47.25;39.50;;;;;8.46;67.18;102071.41;5100562;27;45392;-65
2022/12/01 17:41:12;;;;;;;;;49.00;35.25;;;;;8.46;67.32;102076.63;5124956;27;45629;-65
2022/12/01 17:43:39;;;;;;;;;35.25;31.00;;;;;8.40;67.36;102059.88;5119759;27;45946;-65
2022/12/01 17:46:07;;;;;;;;;45.25;36.25;;;;;8.38;67.82;102072.00;5116305;27;45354;-64
2022/12/01 17:48:37;;;;;;;;;53.25;39.50;;;;;8.21;68.17;102067.09;5118025;27;45346;-64
2022/12/01 17:51:03;;;;;;;;;41.50;32.75;;;;;8.20;68.45;102052.25;5106809;27;45665;-67
2022/12/01 17:53:29;;;;;;;;;51.00;36.50;;;;;8.24;68.47;102063.69;5121027;27;45504;-64
2022/12/01 17:55:55;;;;;;;;;41.50;32.75;;;;;8.27;68.54;102075.13;5131690;27;45469;-65
2022/12/01 17:58:21;;;;;;;;;46.25;34.50;;;;;8.30;68.30;102074.31;5117587;27;45452;-67
2022/12/01 18:00:51;;;;;;;;;37.00;30.25;;;;;8.25;68.40;102060.25;5117908;27;45374;-64
2022/12/01 18:03:18;;;;;;;;;49.00;35.00;;;;;8.34;68.28;102076.22;5103277;27;45481;-64
2022/12/01 18:05:44;;;;;;;;;40.25;33.50;;;;;8.30;68.81;102053.44;5117546;27;45470;-65
2022/12/01 18:08:10;;;;;;;;;41.50;29.75;;;;;8.39;68.77;102071.13;5115767;27;45378;-66
2022/12/01 18:10:36;;;;;;;;;51.50;38.75;;;;;8.43;68.94;102073.06;5099010;27;45542;-66
2022/12/01 18:13:02;;;;;;;;;47.75;36.50;;;;;8.26;69.13;102070.75;5099706;27;48030;-67
2022/12/01 18:15:27;;;;;;;;;60.50;41.50;;;;;8.15;69.86;102064.28;5115620;27;45574;-66
2022/12/01 18:17:54;;;;;;;;;51.50;36.50;;;;;8.07;70.24;102061.41;5115679;27;45898;-66
2022/12/01 18:20:19;;;;;;;;;50.25;38.75;;;;;8.07;70.46;102052.72;5099260;27;45563;-65
2022/12/01 18:22:45;;;;;;;;;45.25;37.25;;;;;8.06;71.16;102067.44;5118745;27;45908;-69
2022/12/01 18:25:12;;;;;;;;;40.25;33.75;;;;;8.08;70.97;102060.56;5116647;27;45428;-65
2022/12/01 18:27:37;;;;;;;;;45.75;35.75;;;;;8.14;70.86;102067.72;5116496;27;45540;-70
2022/12/01 18:30:04;;;;;;;;;48.50;36.50;;;;;8.12;70.44;102066.78;5118694;27;45607;-65
2022/12/01 18:32:30;;;;;;;;;45.25;36.75;;;;;7.95;70.85;102040.13;5102983;27;47363;-65
2022/12/01 18:34:55;;;;;;;;;50.50;35.50;;;;;8.05;70.27;102051.78;5119356;27;45561;-66
2022/12/01 18:37:21;;;;;;;;;50.75;40.00;;;;;8.11;70.50;102062.38;5116824;27;45542;-70
2022/12/01 18:39:47;;;;;;;;;50.50;37.00;;;;;8.07;70.48;102069.25;5121284;27;45542;-69
2022/12/01 18:42:12;;;;;;;;;56.25;39.50;;;;;8.04;70.13;102055.19;5102515;27;47378;-66
2022/12/01 18:44:41;;;;;;;;;47.50;35.75;;;;;8.04;70.03;102057.81;5119063;27;45526;-68
2022/12/01 18:47:07;;;;;;;;;45.00;36.00;;;;;8.06;70.16;102066.56;5082033;27;46728;-66
2022/12/01 18:49:32;;;;;;;;;45.75;35.50;;;;;8.15;69.95;102069.50;5098342;27;45792;-67
2022/12/01 18:51:59;;;;;;;;;53.25;40.75;;;;;8.05;69.81;102057.88;5116320;27;45610;-68
2022/12/01 18:54:26;;;;;;;;;42.00;30.50;;;;;8.14;69.61;102064.22;5115117;27;45376;-65
2022/12/01 18:56:52;;;;;;;;;46.50;35.00;;;;;8.06;69.19;102040.47;5115123;27;45342;-64
2022/12/01 18:59:18;;;;;;;;;36.00;31.25;;;;;8.22;69.26;102065.38;5107951;27;45443;-65
2022/12/01 19:01:46;;;;;;;;;36.75;28.50;;;;;8.16;68.98;102053.03;5122835;27;47112;-64
2022/12/01 19:04:13;;;;;;;;;52.00;38.50;;;;;8.24;68.87;102069.81;5123350;27;46297;-71
2022/12/01 19:06:39;;;;;;;;;47.75;36.75;;;;;8.21;68.94;102072.31;5119881;27;45445;-65
2022/12/01 19:09:08;;;;;;;;;44.00;32.25;;;;;8.18;69.01;102072.19;5148358;27;45324;-65
2022/12/01 19:11:34;;;;;;;;;41.25;34.00;;;;;8.17;68.81;102067.81;5118594;27;46203;-66
2022/12/01 19:14:02;;;;;;;;;49.75;36.00;;;;;8.15;68.50;102056.44;5114902;27;45642;-67
2022/12/01 19:16:29;;;;;;;;;37.75;29.50;;;;;8.16;67.55;102067.75;5117229;27;45486;-66
2022/12/01 19:18:56;;;;;;;;;43.25;36.00;;;;;8.01;68.22;102063.81;5114985;27;45380;-66
2022/12/01 19:21:21;;;;;;;;;43.50;34.50;;;;;8.04;68.07;102076.97;5127114;27;46220;-65
2022/12/01 19:23:47;;;;;;;;;49.25;36.00;;;;;7.97;69.50;102064.56;5115190;27;45562;-68
2022/12/01 19:26:16;;;;;;;;;48.25;37.25;;;;;8.04;67.66;102073.47;5114536;27;45369;-64
2022/12/01 19:28:44;;;;;;;;;38.00;31.25;;;;;7.95;67.73;102066.22;5114841;27;45951;-64
2022/12/01 19:31:15;;;;;;;;;35.75;30.25;;;;;7.98;67.87;102074.16;5109175;27;47574;-65
2022/12/01 19:33:42;;;;;;;;;35.25;27.50;;;;;8.00;68.04;102066.38;5101748;27;45518;-70
2022/12/01 19:36:13;;;;;;;;;33.25;26.75;;;;;8.04;67.54;102071.75;5125437;27;45703;-70
2022/12/01 19:38:40;;;;;;;;;47.00;35.00;;;;;8.06;66.93;102074.41;5127091;27;45666;-71
2022/12/01 19:41:08;;;;;;;;;37.00;31.00;;;;;7.94;67.25;102082.69;5107347;27;46120;-74
2022/12/01 19:43:34;;;;;;;;;49.00;37.75;;;;;7.90;67.01;102088.66;5127288;27;45302;-84
2022/12/01 19:46:20;;;;;;;;;43.50;34.75;;;;;7.76;67.54;102069.00;5123371;27;45310;-74
2022/12/01 19:48:47;;;;;;;;;45.25;35.50;;;;;7.85;67.53;102090.19;5124196;27;45840;-65
2022/12/01 19:51:20;;;;;;;;;44.00;34.25;;;;;7.88;66.97;102082.50;5109512;27;45570;-66
2022/12/01 19:53:50;;;;;;;;;41.75;31.50;;;;;7.82;67.22;102071.84;5117206;27;45492;-68
2022/12/01 19:56:16;;;;;;;;;33.75;26.00;;;;;7.80;67.11;102083.94;5128244;27;45397;-64
2022/12/01 19:58:42;;;;;;;;;47.00;34.50;;;;;7.87;67.02;102091.16;5121427;27;45674;-65
2022/12/01 20:01:11;;;;;;;;;30.50;24.25;;;;;7.84;67.15;102091.94;5127061;27;45543;-76
2022/12/01 20:03:39;;;;;;;;;28.75;25.25;;;;;7.88;67.48;102084.19;5129383;27;45436;-68
2022/12/01 20:06:14;;;;;;;;;28.75;23.00;;;;;7.86;67.11;102071.13;5123166;27;45496;-70
2022/12/01 20:08:41;;;;;;;;;40.25;24.50;;;;;7.83;67.09;102056.25;5071379;27;45477;-71
2022/12/01 20:11:07;;;;;;;;;31.75;27.75;;;;;7.97;66.75;102069.78;5057583;28;46026;-68
2022/12/01 20:13:38;;;;;;;;;33.25;26.75;;;;;8.02;66.58;102081.25;5046298;28;45584;-64
2022/12/01 20:16:24;;;;;;;;;36.25;29.75;;;;;8.02;66.67;102082.94;5048054;28;45445;-66
2022/12/01 20:18:51;;;;;;;;;38.25;32.00;;;;;8.00;66.15;102076.81;5030737;28;45724;-66
2022/12/01 20:21:26;;;;;;;;;31.00;28.00;;;;;8.01;66.50;102082.06;5046397;28;46392;-65
2022/12/01 20:23:58;;;;;;;;;33.00;26.00;;;;;8.02;66.22;102070.81;5054942;28;45548;-66
2022/12/01 20:26:26;;;;;;;;;31.75;26.00;;;;;7.94;65.72;102068.78;5056857;28;45560;-66
2022/12/01 20:28:52;;;;;;;;;42.00;31.50;;;;;7.96;65.90;102080.16;5046251;28;45533;-77
2022/12/01 20:31:22;;;;;;;;;42.25;33.75;;;;;7.91;65.59;102089.56;5039895;28;46901;-71
2022/12/01 20:33:50;;;;;;;;;38.50;29.75;;;;;7.78;65.62;102075.19;5058879;28;45757;-71
2022/12/01 20:36:16;;;;;;;;;35.25;33.25;;;;;7.52;66.32;102041.28;5050133;28;45790;-76
2022/12/01 20:38:42;;;;;;;;;42.75;28.50;;;;;7.64;66.86;102065.16;5031273;28;45380;-66
2022/12/01 20:41:08;;;;;;;;;43.50;33.25;;;;;7.64;66.31;102078.22;5046899;28;46146;-71
2022/12/01 20:43:34;;;;;;;;;44.25;34.00;;;;;7.62;66.39;102072.03;5041526;28;45517;-71
2022/12/01 20:46:00;;;;;;;;;30.00;24.00;;;;;7.64;66.95;102067.78;5036557;28;45969;-72
2022/12/01 20:48:26;;;;;;;;;28.25;24.50;;;;;7.67;66.72;102061.78;5029920;28;45785;-75
2022/12/01 20:50:52;;;;;;;;;38.25;26.50;;;;;7.46;66.11;102021.91;5053954;28;46531;-73
2022/12/01 20:53:18;;;;;;;;;32.75;29.25;;;;;7.73;66.11;102067.19;5038324;28;46454;-77
2022/12/01 20:55:44;;;;;;;;;32.25;25.25;;;;;7.60;66.30;102041.53;5061123;28;45440;-78
2022/12/01 20:58:09;;;;;;;;;34.50;24.50;;;;;7.62;65.63;102039.88;5056423;28;45506;-65
2022/12/01 21:00:37;;;;;;;;;39.75;32.25;;;;;7.75;65.56;102064.66;5059596;28;45459;-67
2022/12/01 21:03:03;;;;;;;;;22.75;22.75;;;;;7.75;64.54;102057.69;5024052;28;45455;-80
2022/12/01 21:05:31;;;;;;;;;35.00;29.75;;;;;7.65;64.20;102047.78;5055104;28;45379;-81
2022/12/01 21:07:59;;;;;;;;;23.25;18.50;;;;;7.64;64.32;102051.25;5039675;28;45256;-79
2022/12/01 21:10:25;;;;;;;;;28.00;24.00;;;;;7.70;65.00;102053.16;5055864;28;45469;-74
2022/12/01 21:15:54;;;;;;;;;30.50;25.75;;;;;7.67;64.75;102059.16;5038386;28;45406;-77
2022/12/01 21:18:25;;;;;;;;;34.50;30.00;;;;;7.73;65.11;102048.06;5047976;28;45543;-75
2022/12/01 21:21:03;;;;;;;;;33.50;21.00;;;;;7.78;64.96;102052.63;5054383;28;46053;-73
2022/12/01 21:23:29;;;;;;;;;21.50;20.75;;;;;7.79;64.75;102046.53;5039368;28;45415;-70
2022/12/01 21:25:56;;;;;;;;;24.25;18.75;;;;;7.89;64.21;102041.66;5042248;28;45412;-69
2022/12/01 21:28:24;;;;;;;;;30.25;25.75;;;;;7.96;64.05;102039.28;5030893;28;45575;-68
2022/12/01 21:31:00;;;;;;;;;27.50;24.00;;;;;7.93;63.69;102031.38;5043623;28;45856;-68
2022/12/01 21:33:30;;;;;;;;;32.75;27.00;;;;;8.01;63.94;102039.44;5046982;28;45538;-66
2022/12/01 21:35:56;;;;;;;;;25.75;19.50;;;;;8.02;63.44;102030.78;5030789;28;45595;-67
2022/12/01 21:38:22;;;;;;;;;23.75;19.50;;;;;7.91;63.33;102009.56;5044946;28;46645;-73
2022/12/01 21:40:48;;;;;;;;;22.00;19.00;;;;;8.06;63.00;102017.88;5029558;28;46364;-76